sensor_id;sensor_type;location;lat;lon;timestamp;pressure;altitude;pressure_sealevel;temperature;humidity
79316;BME280;68779;50.036;19.964;2023-12-29T00:27:40;101685.98;;;11.93;52.74
79316;BME280;68779;50.036;19.964;2023-12-29T00:57:56;101653.24;;;12.14;52.55
79316;BME280;68779;50.036;19.964;2023-12-29T01:28:13;101629.32;;;12.18;52.80
79316;BME280;68779;50.036;19.964;2023-12-29T01:58:30;101590.17;;;11.98;52.69
79316;BME280;68779;50.036;19.964;2023-12-29T02:28:53;101578.14;;;12.01;52.87
79316;BME280;68779;50.036;19.964;2023-12-29T02:59:09;101542.83;;;11.69;53.63
79316;BME280;68779;50.036;19.964;2023-12-29T03:29:22;101518.90;;;11.31;54.77
79316;BME280;68779;50.036;19.964;2023-12-29T03:59:37;101498.45;;;11.16;54.54
79316;BME280;68779;50.036;19.964;2023-12-29T04:29:54;101491.80;;;10.88;54.20
79316;BME280;68779;50.036;19.964;2023-12-29T05:00:08;101461.26;;;10.85;54.45
79316;BME280;68779;50.036;19.964;2023-12-29T05:30:24;101475.41;;;11.20;54.27
79316;BME280;68779;50.036;19.964;2023-12-29T06:00:40;101463.43;;;11.53;54.25
79316;BME280;68779;50.036;19.964;2023-12-29T06:30:56;101472.21;;;11.86;53.98
79316;BME280;68779;50.036;19.964;2023-12-29T07:01:14;101488.56;;;12.26;52.62
79316;BME280;68779;50.036;19.964;2023-12-29T07:31:29;101474.06;;;12.16;52.92
79316;BME280;68779;50.036;19.964;2023-12-29T08:01:45;101463.07;;;12.85;53.98
79316;BME280;68779;50.036;19.964;2023-12-29T08:32:02;101462.59;;;13.83;52.62
79316;BME280;68779;50.036;19.964;2023-12-29T09:02:18;101485.03;;;15.04;49.90
79316;BME280;68779;50.036;19.964;2023-12-29T09:32:34;101456.66;;;15.30;47.64
79316;BME280;68779;50.036;19.964;2023-12-29T10:02:51;101423.67;;;15.99;45.39
79316;BME280;68779;50.036;19.964;2023-12-29T10:33:08;101382.01;;;16.94;43.12
79316;BME280;68779;50.036;19.964;2023-12-29T11:03:25;101362.91;;;17.17;41.67
79316;BME280;68779;50.036;19.964;2023-12-29T11:33:42;101357.45;;;16.52;42.76
79316;BME280;68779;50.036;19.964;2023-12-29T12:03:59;101353.30;;;17.13;42.28
79316;BME280;68779;50.036;19.964;2023-12-29T12:34:13;101337.68;;;17.13;42.22
79316;BME280;68779;50.036;19.964;2023-12-29T13:04:30;101343.88;;;16.91;42.30
79316;BME280;68779;50.036;19.964;2023-12-29T14:05:19;101346.97;;;16.56;41.61
79316;BME280;68779;50.036;19.964;2023-12-29T14:35:35;101363.87;;;16.11;42.77
79316;BME280;68779;50.036;19.964;2023-12-29T15:05:51;101382.20;;;15.35;42.85
79316;BME280;68779;50.036;19.964;2023-12-29T15:36:06;101414.75;;;15.64;42.29
79316;BME280;68779;50.036;19.964;2023-12-29T16:06:26;101381.98;;;15.28;42.76
79316;BME280;68779;50.036;19.964;2023-12-29T16:36:56;101398.90;;;14.81;44.69
79316;BME280;68779;50.036;19.964;2023-12-29T17:07:05;101371.30;;;14.74;44.70
79316;BME280;68779;50.036;19.964;2023-12-29T17:37:28;101364.35;;;14.80;44.36
79316;BME280;68779;50.036;19.964;2023-12-29T18:24:25;101376.55;;;14.32;46.64
79316;BME280;68779;50.036;19.964;2023-12-29T18:54:41;101378.81;;;14.72;45.81
79316;BME280;68779;50.036;19.964;2023-12-29T19:24:58;101373.99;;;14.92;45.12
79316;BME280;68779;50.036;19.964;2023-12-29T19:55:15;101378.34;;;15.46;43.89
79316;BME280;68779;50.036;19.964;2023-12-29T20:25:32;101363.77;;;15.45;44.09
79316;BME280;68779;50.036;19.964;2023-12-29T20:55:46;101363.00;;;15.61;44.13
79316;BME280;68779;50.036;19.964;2023-12-29T21:26:03;101348.63;;;15.07;45.33
79316;BME280;68779;50.036;19.964;2023-12-29T21:56:19;101373.42;;;14.62;45.60
79316;BME280;68779;50.036;19.964;2023-12-29T22:26:35;101327.34;;;15.01;44.54
79316;BME280;68779;50.036;19.964;2023-12-29T22:56:54;101297.45;;;14.82;44.48
79316;BME280;68779;50.036;19.964;2023-12-29T23:27:08;101286.64;;;15.06;44.59
79316;BME280;68779;50.036;19.964;2023-12-29T23:57:24;101288.22;;;14.22;46.13
